createdAt,value
2022-09-01T00:01:14.431Z,0
2022-09-01T00:02:30.577Z,0
2022-09-01T00:03:45.831Z,0
2022-09-01T00:05:02.019Z,0
2022-09-01T00:06:18.209Z,0
2022-09-01T00:07:34.349Z,0
2022-09-01T00:08:50.582Z,0
2022-09-01T00:10:06.743Z,0
2022-09-01T00:11:22.968Z,0
2022-09-01T00:12:39.158Z,0
2022-09-01T00:13:55.343Z,0
2022-09-01T00:15:11.499Z,0
2022-09-01T00:16:27.714Z,0
2022-09-01T00:17:43.858Z,0
2022-09-01T00:19:00.098Z,0
2022-09-01T00:20:15.306Z,0
2022-09-01T00:21:31.490Z,0
2022-09-01T00:22:47.649Z,0
2022-09-01T00:24:03.827Z,0
2022-09-01T00:25:20.008Z,0
2022-09-01T00:26:36.242Z,0
2022-09-01T00:27:52.389Z,0
2022-09-01T00:29:08.634Z,0
2022-09-01T00:30:24.766Z,0
2022-09-01T00:31:41.006Z,0
2022-09-01T00:32:57.159Z,0
2022-09-01T00:34:13.377Z,0
2022-09-01T00:35:29.573Z,0
2022-09-01T00:36:44.728Z,0
2022-09-01T00:38:00.930Z,0
2022-09-01T00:39:17.165Z,0
2022-09-01T00:40:33.300Z,0
2022-09-01T00:41:49.528Z,0
2022-09-01T00:43:05.721Z,0
2022-09-01T00:44:21.908Z,0
2022-09-01T00:45:38.050Z,0
2022-09-01T00:46:54.301Z,0
2022-09-01T00:48:10.437Z,0
2022-09-01T00:49:26.681Z,0
2022-09-01T00:50:42.866Z,0
2022-09-01T00:51:59.045Z,0
2022-09-01T00:53:14.214Z,0
2022-09-01T00:54:30.449Z,0
2022-09-01T00:55:46.631Z,0
2022-09-01T00:57:02.831Z,0
2022-09-01T00:58:18.959Z,0
2022-09-01T00:59:35.200Z,0
2022-09-01T01:00:51.344Z,0
2022-09-01T01:02:07.526Z,0
2022-09-01T01:03:23.724Z,0
2022-09-01T01:04:39.960Z,0
2022-09-01T01:05:56.143Z,0
2022-09-01T01:07:12.326Z,0
2022-09-01T01:08:28.478Z,0
2022-09-01T01:09:43.669Z,0
2022-09-01T01:10:59.877Z,0
2022-09-01T01:12:16.101Z,0
2022-09-01T01:13:32.288Z,0
2022-09-01T01:14:48.495Z,0
2022-09-01T01:16:04.630Z,0
2022-09-01T01:17:20.861Z,0
2022-09-01T01:18:37.047Z,0
2022-09-01T01:19:53.248Z,0
2022-09-01T01:21:09.436Z,0
2022-09-01T01:22:25.629Z,0
2022-09-01T01:23:41.819Z,0
2022-09-01T01:24:58.007Z,0
2022-09-01T01:26:13.147Z,0
2022-09-01T01:27:29.341Z,0
2022-09-01T01:28:45.582Z,0
2022-09-01T01:30:01.766Z,0
2022-09-01T01:31:17.907Z,0
2022-09-01T01:32:34.158Z,0
2022-09-01T01:33:49.311Z,0
2022-09-01T01:35:05.562Z,0
2022-09-01T01:36:21.000Z,0
2022-09-01T01:37:37.935Z,0
2022-09-01T01:38:54.119Z,0
2022-09-01T01:40:10.252Z,0
2022-09-01T01:41:26.447Z,0
2022-09-01T01:42:42.676Z,0
2022-09-01T01:43:58.876Z,0
2022-09-01T01:45:14.998Z,0
2022-09-01T01:46:31.204Z,0
2022-09-01T01:47:47.436Z,0
2022-09-01T01:49:03.563Z,0
2022-09-01T01:50:18.840Z,0
2022-09-01T01:51:35.031Z,0
2022-09-01T01:52:51.145Z,0
2022-09-01T01:54:07.352Z,0
2022-09-01T01:55:23.592Z,0
2022-09-01T01:56:39.728Z,0
2022-09-01T01:57:55.976Z,0
2022-09-01T01:59:12.151Z,0
2022-09-01T02:00:28.285Z,0
2022-09-01T02:01:44.533Z,0
2022-09-01T02:03:00.727Z,0
2022-09-01T02:04:16.844Z,0
2022-09-01T02:05:33.052Z,0
2022-09-01T02:06:48.303Z,0
2022-09-01T02:08:04.507Z,0
2022-09-01T02:09:20.632Z,0
2022-09-01T02:10:36.871Z,0
2022-09-01T02:11:52.995Z,0
2022-09-01T02:13:09.264Z,0
2022-09-01T02:14:25.451Z,0
2022-09-01T02:15:41.644Z,0
2022-09-01T02:16:57.834Z,0
2022-09-01T02:18:13.945Z,0
2022-09-01T02:19:30.203Z,0
2022-09-01T02:20:46.386Z,0
2022-09-01T02:22:02.575Z,0
2022-09-01T02:23:17.791Z,0
2022-09-01T02:24:33.902Z,0
2022-09-01T02:25:50.000Z,0
2022-09-01T02:27:06.285Z,0
2022-09-01T02:28:22.545Z,0
2022-09-01T02:29:38.723Z,0
2022-09-01T02:30:54.924Z,0
2022-09-01T02:32:11.051Z,0
2022-09-01T02:33:27.309Z,0
2022-09-01T02:34:43.409Z,0
2022-09-01T02:35:59.670Z,0
2022-09-01T02:37:15.873Z,0
2022-09-01T02:38:32.064Z,0
2022-09-01T02:39:47.199Z,0
2022-09-01T02:41:03.443Z,0
2022-09-01T02:42:19.571Z,0
2022-09-01T02:43:35.831Z,0
2022-09-01T02:44:52.012Z,0
2022-09-01T02:46:08.129Z,0
2022-09-01T02:47:24.325Z,0
2022-09-01T02:48:40.576Z,0
2022-09-01T02:49:56.767Z,0
2022-09-01T02:51:12.963Z,0
2022-09-01T02:52:29.145Z,0
2022-09-01T02:53:45.333Z,0
2022-09-01T02:55:01.521Z,0
2022-09-01T02:56:16.743Z,0
2022-09-01T02:57:32.856Z,0
2022-09-01T02:58:49.105Z,0
2022-09-01T03:00:05.310Z,0
2022-09-01T03:01:21.501Z,0
2022-09-01T03:02:37.596Z,0
2022-09-01T03:03:53.867Z,0
2022-09-01T03:05:09.981Z,0
2022-09-01T03:06:26.240Z,0
2022-09-01T03:07:42.366Z,0
2022-09-01T03:08:58.553Z,0
2022-09-01T03:10:14.747Z,0
2022-09-01T03:11:31.013Z,0
2022-09-01T03:12:46.217Z,0
2022-09-01T03:14:02.392Z,0
2022-09-01T03:15:18.581Z,0
2022-09-01T03:16:34.780Z,0
2022-09-01T03:17:50.884Z,0
2022-09-01T03:19:07.160Z,0
2022-09-01T03:20:23.339Z,0
2022-09-01T03:21:39.523Z,0
2022-09-01T03:22:55.721Z,0
2022-09-01T03:24:11.905Z,0
2022-09-01T03:25:28.024Z,0
2022-09-01T03:26:44.286Z,0
2022-09-01T03:28:00.402Z,0
2022-09-01T03:29:15.684Z,0
2022-09-01T03:30:31.865Z,0
2022-09-01T03:31:48.071Z,0
2022-09-01T03:33:04.253Z,0
2022-09-01T03:34:20.443Z,0
2022-09-01T03:35:36.544Z,0
2022-09-01T03:36:52.809Z,0
2022-09-01T03:38:09.003Z,0
2022-09-01T03:39:25.116Z,0
2022-09-01T03:40:41.388Z,0
2022-09-01T03:41:57.578Z,0
2022-09-01T03:43:13.680Z,0
2022-09-01T03:44:29.960Z,0
2022-09-01T03:45:45.072Z,0
2022-09-01T03:47:01.354Z,0
2022-09-01T03:48:17.461Z,0
2022-09-01T03:49:33.734Z,0
2022-09-01T03:50:49.912Z,0
2022-09-01T03:52:06.100Z,4
2022-09-01T03:53:22.289Z,4
2022-09-01T03:54:38.471Z,4
2022-09-01T03:55:54.586Z,4
2022-09-01T03:57:10.850Z,4
2022-09-01T03:58:26.962Z,8
2022-09-01T03:59:43.153Z,8
2022-09-01T04:00:59.437Z,8
2022-09-01T04:02:14.624Z,8
2022-09-01T04:03:30.744Z,16
2022-09-01T04:04:47.008Z,12
2022-09-01T04:06:03.120Z,16
2022-09-01T04:07:19.385Z,20
2022-09-01T04:08:35.497Z,24
2022-09-01T04:09:51.758Z,28
2022-09-01T04:11:07.873Z,32
2022-09-01T04:12:24.057Z,40
2022-09-01T04:13:40.330Z,44
2022-09-01T04:14:56.514Z,52
2022-09-01T04:16:12.714Z,56
2022-09-01T04:17:28.910Z,64
2022-09-01T04:18:44.110Z,72
2022-09-01T04:20:00.288Z,76
2022-09-01T04:21:16.384Z,84
2022-09-01T04:22:32.592Z,96
2022-09-01T04:23:48.778Z,100
2022-09-01T04:25:05.044Z,112
2022-09-01T04:26:21.142Z,120
2022-09-01T04:27:37.437Z,132
2022-09-01T04:28:53.533Z,140
2022-09-01T04:30:09.807Z,148
2022-09-01T04:31:26.002Z,160
2022-09-01T04:32:42.194Z,172
2022-09-01T04:33:58.285Z,184
2022-09-01T04:35:13.490Z,192
2022-09-01T04:36:29.769Z,204
2022-09-01T04:37:45.966Z,216
2022-09-01T04:39:02.056Z,224
2022-09-01T04:40:18.346Z,236
2022-09-01T04:41:34.535Z,248
2022-09-01T04:42:50.722Z,260
2022-09-01T04:45:23.097Z,280
2022-09-01T04:46:39.279Z,292
2022-09-01T04:47:55.467Z,300
2022-09-01T04:49:11.658Z,312
2022-09-01T04:50:27.748Z,320
2022-09-01T04:51:43.055Z,332
2022-09-01T04:52:59.253Z,340
2022-09-01T04:54:15.441Z,352
2022-09-01T04:55:31.629Z,356
2022-09-01T04:56:47.000Z,368
2022-09-01T04:58:03.998Z,376
2022-09-01T04:59:20.100Z,388
2022-09-01T05:00:36.286Z,392
2022-09-01T05:01:52.561Z,400
2022-09-01T05:03:08.756Z,404
2022-09-01T05:04:24.852Z,404
2022-09-01T05:05:41.028Z,416
2022-09-01T05:06:57.232Z,428
2022-09-01T05:08:12.536Z,440
2022-09-01T05:09:28.724Z,452
2022-09-01T05:10:44.803Z,468
2022-09-01T05:12:00.996Z,480
2022-09-01T05:13:17.278Z,496
2022-09-01T05:14:33.369Z,512
2022-09-01T05:15:49.668Z,524
2022-09-01T05:17:05.860Z,540
2022-09-01T05:18:22.037Z,556
2022-09-01T05:19:38.131Z,568
2022-09-01T05:20:54.412Z,580
2022-09-01T05:22:10.502Z,592
2022-09-01T05:23:26.795Z,604
2022-09-01T05:24:42.001Z,620
2022-09-01T05:25:58.196Z,636
2022-09-01T05:27:14.290Z,648
2022-09-01T05:28:30.476Z,656
2022-09-01T05:29:46.666Z,672
2022-09-01T05:31:02.958Z,688
2022-09-01T05:32:19.028Z,700
2022-09-01T05:33:35.322Z,712
2022-09-01T05:34:51.404Z,724
2022-09-01T05:36:07.710Z,732
2022-09-01T05:37:23.780Z,744
2022-09-01T05:38:40.094Z,752
2022-09-01T05:39:56.278Z,764
2022-09-01T05:41:11.370Z,772
2022-09-01T05:42:27.557Z,784
2022-09-01T05:43:43.867Z,792
2022-09-01T05:44:59.933Z,800
2022-09-01T05:46:16.122Z,808
2022-09-01T05:47:32.325Z,820
2022-09-01T05:48:47.627Z,824
2022-09-01T05:50:03.715Z,836
2022-09-01T05:51:20.006Z,840
2022-09-01T05:52:36.157Z,856
2022-09-01T05:53:52.351Z,876
2022-09-01T05:55:08.575Z,896
2022-09-01T05:56:24.775Z,912
2022-09-01T05:57:40.903Z,932
2022-09-01T05:58:57.157Z,952
2022-09-01T06:00:13.293Z,964
2022-09-01T06:01:29.519Z,976
2022-09-01T06:02:45.718Z,980
2022-09-01T06:04:01.905Z,988
2022-09-01T06:05:17.052Z,992
2022-09-01T06:06:33.256Z,1000
2022-09-01T06:07:49.489Z,1004
2022-09-01T06:09:05.681Z,1016
2022-09-01T06:10:21.873Z,1024
2022-09-01T06:11:38.052Z,1028
2022-09-01T06:12:54.205Z,1032
2022-09-01T06:14:10.435Z,1032
2022-09-01T06:15:26.628Z,1040
2022-09-01T06:16:42.803Z,1040
2022-09-01T06:17:58.995Z,1044
2022-09-01T06:19:15.134Z,1044
2022-09-01T06:20:31.329Z,1048
2022-09-01T06:21:46.588Z,1052
2022-09-01T06:23:02.732Z,1052
2022-09-01T06:24:18.957Z,1056
2022-09-01T06:25:35.154Z,1060
2022-09-01T06:26:51.333Z,1064
2022-09-01T06:28:07.528Z,1064
2022-09-01T06:29:23.711Z,1068
2022-09-01T06:30:39.838Z,1064
2022-09-01T06:31:56.026Z,1068
2022-09-01T06:33:12.285Z,1064
2022-09-01T06:34:28.456Z,1068
2022-09-01T06:35:44.645Z,1064
2022-09-01T06:37:00.835Z,1064
2022-09-01T06:38:16.036Z,1064
2022-09-01T06:39:32.222Z,1064
2022-09-01T06:40:48.361Z,1064
2022-09-01T06:42:04.595Z,1064
2022-09-01T06:43:20.796Z,1064
2022-09-01T06:44:36.922Z,1068
2022-09-01T06:45:53.165Z,1068
2022-09-01T06:47:09.352Z,1064
2022-09-01T06:48:25.542Z,1068
2022-09-01T06:49:41.719Z,1068
2022-09-01T06:50:57.918Z,1064
2022-09-01T06:52:14.098Z,1064
2022-09-01T06:53:30.292Z,1068
2022-09-01T06:54:45.431Z,1068
2022-09-01T06:56:01.618Z,1064
2022-09-01T06:57:17.865Z,1068
2022-09-01T06:58:34.001Z,1064
2022-09-01T06:59:50.245Z,1068
2022-09-01T07:01:06.364Z,1064
2022-09-01T07:02:22.625Z,1064
2022-09-01T07:03:38.808Z,1064
2022-09-01T07:04:54.989Z,1064
2022-09-01T07:06:11.111Z,1060
2022-09-01T07:07:27.366Z,1064
2022-09-01T07:08:43.496Z,1064
2022-09-01T07:09:59.670Z,1060
2022-09-01T07:11:14.945Z,1064
2022-09-01T07:12:31.124Z,1064
2022-09-01T07:13:47.252Z,1064
2022-09-01T07:15:03.517Z,1064
2022-09-01T07:16:19.625Z,1064
2022-09-01T07:17:35.814Z,1068
2022-09-01T07:18:52.000Z,1064
2022-09-01T07:20:08.255Z,1060
2022-09-01T07:21:24.390Z,1064
2022-09-01T07:22:40.639Z,1064
2022-09-01T07:23:56.752Z,1064
2022-09-01T07:25:13.004Z,1068
2022-09-01T07:26:29.194Z,1068
2022-09-01T07:27:44.401Z,1068
2022-09-01T07:29:00.522Z,1068
2022-09-01T07:30:16.771Z,1068
2022-09-01T07:31:32.962Z,1064
2022-09-01T07:32:49.091Z,1064
2022-09-01T07:34:05.326Z,1064
2022-09-01T07:35:21.449Z,1064
2022-09-01T07:36:37.637Z,1064
2022-09-01T07:37:53.896Z,1060
2022-09-01T07:39:10.005Z,1064
2022-09-01T07:40:26.266Z,1064
2022-09-01T07:41:42.388Z,1060
2022-09-01T07:42:58.650Z,1064
2022-09-01T07:44:13.839Z,1056
2022-09-01T07:45:30.036Z,1056
2022-09-01T07:46:46.147Z,1056
2022-09-01T07:48:02.419Z,1052
2022-09-01T07:49:18.599Z,1060
2022-09-01T07:50:34.779Z,1060
2022-09-01T07:51:50.913Z,1060
2022-09-01T07:53:07.162Z,1060
2022-09-01T07:54:23.285Z,1052
2022-09-01T07:55:39.543Z,1052
2022-09-01T07:56:55.723Z,1060
2022-09-01T07:58:11.916Z,1056
2022-09-01T07:59:28.033Z,1060
2022-09-01T08:00:43.221Z,1056
2022-09-01T08:01:59.405Z,1056
2022-09-01T08:03:15.679Z,1056
2022-09-01T08:04:31.854Z,1060
2022-09-01T08:05:48.056Z,1060
2022-09-01T08:07:04.159Z,1060
2022-09-01T08:08:20.421Z,1060
2022-09-01T08:09:36.533Z,1060
2022-09-01T08:10:52.807Z,1060
2022-09-01T08:12:08.977Z,1064
2022-09-01T08:13:25.174Z,1068
2022-09-01T08:14:41.290Z,1068
2022-09-01T08:15:57.472Z,1068
2022-09-01T08:17:12.759Z,1068
2022-09-01T08:18:28.937Z,1068
2022-09-01T08:19:45.130Z,1068
2022-09-01T08:21:01.314Z,1068
2022-09-01T08:22:17.415Z,1072
2022-09-01T08:23:33.693Z,1072
2022-09-01T08:24:49.878Z,1068
2022-09-01T08:26:06.061Z,1072
2022-09-01T08:27:22.245Z,1072
2022-09-01T08:28:38.370Z,1076
2022-09-01T08:29:54.541Z,1072
2022-09-01T08:31:10.817Z,1072
2022-09-01T08:32:26.992Z,1072
2022-09-01T08:33:42.205Z,1072
2022-09-01T08:34:58.315Z,1076
2022-09-01T08:36:14.569Z,1080
2022-09-01T08:37:30.696Z,1076
2022-09-01T08:38:46.868Z,1084
2022-09-01T08:40:03.057Z,1080
2022-09-01T08:41:19.319Z,1084
2022-09-01T08:42:35.507Z,1088
2022-09-01T08:43:51.712Z,1084
2022-09-01T08:45:07.893Z,1084
2022-09-01T08:46:24.077Z,1088
2022-09-01T08:47:40.176Z,1088
2022-09-01T08:48:56.377Z,1092
2022-09-01T08:50:11.659Z,1096
2022-09-01T08:51:27.845Z,1096
2022-09-01T08:52:43.958Z,1112
2022-09-01T08:54:00.225Z,1124
2022-09-01T08:55:16.322Z,1112
2022-09-01T08:56:32.592Z,1112
2022-09-01T08:57:48.706Z,1140
2022-09-01T08:59:04.875Z,1148
2022-09-01T09:00:21.079Z,1160
2022-09-01T09:01:37.343Z,1172
2022-09-01T09:02:53.455Z,1236
2022-09-01T09:04:09.639Z,1812
2022-09-01T09:05:25.900Z,1464
2022-09-01T09:06:41.018Z,1344
2022-09-01T09:07:57.214Z,1028
2022-09-01T09:09:13.484Z,1216
2022-09-01T09:10:29.594Z,1244
2022-09-01T09:11:45.850Z,1008
2022-09-01T09:13:01.961Z,1088
2022-09-01T09:14:18.226Z,1072
2022-09-01T09:15:34.337Z,1264
2022-09-01T09:16:50.526Z,1200
2022-09-01T09:18:06.799Z,1320
2022-09-01T09:19:22.983Z,1832
2022-09-01T09:20:39.172Z,2284
2022-09-01T09:21:55.353Z,2600
2022-09-01T09:23:10.569Z,3172
2022-09-01T09:24:26.745Z,3452
2022-09-01T09:25:42.843Z,3120
2022-09-01T09:26:59.120Z,2532
2022-09-01T09:28:15.216Z,2876
2022-09-01T09:29:31.416Z,2748
2022-09-01T09:30:47.601Z,2364
2022-09-01T09:32:03.878Z,1840
2022-09-01T09:33:20.055Z,1512
2022-09-01T09:34:36.254Z,1332
2022-09-01T09:35:52.339Z,1472
2022-09-01T09:37:08.633Z,2020
2022-09-01T09:38:24.726Z,2304
2022-09-01T09:39:40.003Z,2000
2022-09-01T09:40:56.117Z,1700
2022-09-01T09:42:12.288Z,1664
2022-09-01T09:43:28.571Z,1608
2022-09-01T09:44:44.769Z,1672
2022-09-01T09:46:00.848Z,2352
2022-09-01T09:47:17.138Z,3240
2022-09-01T09:48:33.320Z,3656
2022-09-01T09:49:49.512Z,3672
2022-09-01T09:51:05.597Z,3788
2022-09-01T09:52:21.891Z,3408
2022-09-01T09:53:38.083Z,2936
2022-09-01T09:54:54.263Z,2996
2022-09-01T09:56:09.364Z,3152
2022-09-01T09:57:25.646Z,2992
2022-09-01T09:58:41.848Z,3108
2022-09-01T09:59:58.026Z,2848
2022-09-01T10:01:14.114Z,2696
2022-09-01T10:02:30.394Z,2856
2022-09-01T10:03:45.509Z,2076
2022-09-01T10:05:01.799Z,1928
2022-09-01T10:06:17.991Z,1664
2022-09-01T10:07:34.071Z,1728
2022-09-01T10:08:50.253Z,1884
2022-09-01T10:10:06.537Z,1816
2022-09-01T10:11:22.631Z,2548
2022-09-01T10:12:38.914Z,2804
2022-09-01T10:13:55.104Z,1980
2022-09-01T10:15:11.292Z,2860
2022-09-01T10:16:27.395Z,3172
2022-09-01T10:17:43.672Z,3152
2022-09-01T10:18:59.764Z,2332
2022-09-01T10:20:14.955Z,3016
2022-09-01T10:21:31.148Z,3208
2022-09-01T10:22:47.433Z,2772
2022-09-01T10:24:03.621Z,2956
2022-09-01T10:25:19.811Z,3628
2022-09-01T10:26:35.905Z,4080
2022-09-01T10:27:52.088Z,4536
2022-09-01T10:29:08.370Z,4396
2022-09-01T10:30:24.564Z,3772
2022-09-01T10:31:40.651Z,5216
2022-09-01T10:32:56.925Z,3556
2022-09-01T10:34:13.028Z,3472
2022-09-01T10:35:29.301Z,4544
2022-09-01T10:36:44.511Z,4504
2022-09-01T10:38:00.694Z,3108
2022-09-01T10:39:16.898Z,2884
2022-09-01T10:40:33.074Z,4136
2022-09-01T10:41:49.264Z,4348
2022-09-01T10:43:05.336Z,4772
2022-09-01T10:44:21.631Z,3852
2022-09-01T10:45:37.833Z,3420
2022-09-01T10:46:53.898Z,2916
2022-09-01T10:48:10.192Z,2372
2022-09-01T10:49:26.390Z,2164
2022-09-01T10:50:42.580Z,2140
2022-09-01T10:51:58.771Z,2096
2022-09-01T10:53:13.969Z,2432
2022-09-01T10:54:30.159Z,2532
2022-09-01T10:55:46.337Z,2784
2022-09-01T10:57:02.423Z,2720
2022-09-01T10:58:18.712Z,3128
2022-09-01T10:59:34.903Z,3852
2022-09-01T11:00:51.093Z,3764
2022-09-01T11:02:07.159Z,3948
2022-09-01T11:03:23.467Z,3144
2022-09-01T11:04:39.548Z,4192
2022-09-01T11:05:55.734Z,4280
2022-09-01T11:07:12.020Z,4008
2022-09-01T11:08:28.208Z,4392
2022-09-01T11:09:43.409Z,4020
2022-09-01T11:10:59.610Z,3452
2022-09-01T11:13:31.973Z,2540
2022-09-01T11:14:48.174Z,2424
2022-09-01T11:16:04.249Z,3316
2022-09-01T11:17:20.434Z,7516
2022-09-01T11:18:36.622Z,6796
2022-09-01T11:19:52.802Z,6264
2022-09-01T11:21:09.098Z,5288
2022-09-01T11:22:25.283Z,4072
2022-09-01T11:23:41.372Z,3204
2022-09-01T11:24:57.558Z,2784
2022-09-01T11:26:12.749Z,2732
2022-09-01T11:27:28.939Z,2600
2022-09-01T11:28:45.241Z,2308
2022-09-01T11:30:01.420Z,2228
2022-09-01T11:31:17.611Z,2064
2022-09-01T11:32:33.696Z,2016
2022-09-01T11:33:49.998Z,2268
2022-09-01T11:35:06.065Z,3124
2022-09-01T11:36:22.361Z,4448
2022-09-01T11:37:38.553Z,6872
2022-09-01T11:38:54.748Z,7864
2022-09-01T11:40:10.816Z,7432
2022-09-01T11:41:27.114Z,9300
2022-09-01T11:42:42.197Z,10324
2022-09-01T11:43:58.511Z,13024
2022-09-01T11:45:14.703Z,7952
2022-09-01T11:46:30.875Z,7060
2022-09-01T11:47:46.952Z,6112
2022-09-01T11:49:03.149Z,5496
2022-09-01T11:50:19.000Z,5060
2022-09-01T11:51:35.629Z,4700
2022-09-01T11:52:51.823Z,4228
2022-09-01T11:54:08.014Z,3968
2022-09-01T11:55:24.079Z,4052
2022-09-01T11:56:40.373Z,4212
2022-09-01T11:57:56.564Z,4440
2022-09-01T11:59:11.769Z,4756
2022-09-01T12:00:27.959Z,5268
2022-09-01T12:01:44.142Z,5872
2022-09-01T12:03:00.328Z,5932
2022-09-01T12:04:16.521Z,5648
2022-09-01T12:05:32.597Z,4744
2022-09-01T12:06:48.900Z,4292
2022-09-01T12:08:05.079Z,4000
2022-09-01T12:09:21.262Z,3840
2022-09-01T12:10:37.451Z,4156
2022-09-01T12:11:53.643Z,4564
2022-09-01T12:13:09.832Z,15768
2022-09-01T12:14:25.889Z,6412
2022-09-01T12:15:41.231Z,7112
2022-09-01T12:16:57.402Z,6624
2022-09-01T12:18:13.483Z,6368
2022-09-01T12:19:29.776Z,7208
2022-09-01T12:20:45.978Z,10276
2022-09-01T12:22:02.038Z,9536
2022-09-01T12:23:18.351Z,13756
2022-09-01T12:24:34.526Z,35968
2022-09-01T12:25:50.606Z,7540
2022-09-01T12:27:06.796Z,5596
2022-09-01T12:28:22.980Z,4636
2022-09-01T12:29:39.283Z,4184
2022-09-01T12:30:55.461Z,3920
2022-09-01T12:32:10.678Z,3568
2022-09-01T12:33:26.728Z,3280
2022-09-01T12:34:43.053Z,3068
2022-09-01T12:35:59.226Z,3040
2022-09-01T12:37:15.418Z,3204
2022-09-01T12:38:31.617Z,3356
2022-09-01T12:39:47.662Z,3568
2022-09-01T12:41:03.859Z,3508
2022-09-01T12:42:20.166Z,3292
2022-09-01T12:43:36.360Z,3196
2022-09-01T12:44:52.545Z,3200
2022-09-01T12:46:08.726Z,3224
2022-09-01T12:47:24.920Z,3076
2022-09-01T12:48:40.006Z,2916
2022-09-01T12:49:56.192Z,2788
2022-09-01T12:51:12.508Z,2608
2022-09-01T12:52:28.562Z,2484
2022-09-01T12:53:44.876Z,2368
2022-09-01T12:55:01.065Z,2248
2022-09-01T12:56:17.114Z,2176
2022-09-01T12:57:33.438Z,2192
2022-09-01T12:58:49.628Z,2288
2022-09-01T13:00:05.816Z,2460
2022-09-01T13:01:22.003Z,2800
2022-09-01T13:02:38.178Z,3140
2022-09-01T13:03:54.241Z,3596
2022-09-01T13:05:09.453Z,4168
2022-09-01T13:06:25.634Z,4848
2022-09-01T13:07:41.953Z,5404
2022-09-01T13:08:58.144Z,6308
2022-09-01T13:10:14.325Z,7876
2022-09-01T13:11:30.515Z,9392
2022-09-01T13:12:46.691Z,12940
2022-09-01T13:14:02.756Z,15140
2022-09-01T13:15:19.072Z,17288
2022-09-01T13:16:35.127Z,17364
2022-09-01T13:17:51.314Z,74368
2022-09-01T13:19:07.494Z,16488
2022-09-01T13:20:23.826Z,54688
2022-09-01T13:21:38.890Z,49088
2022-09-01T13:22:55.225Z,60320
2022-09-01T13:24:11.270Z,30112
2022-09-01T13:25:27.589Z,26528
2022-09-01T13:26:43.650Z,13936
2022-09-01T13:27:59.962Z,10012
2022-09-01T13:29:16.147Z,9864
2022-09-01T13:30:32.340Z,8840
2022-09-01T13:31:48.530Z,8180
2022-09-01T13:33:04.724Z,7748
2022-09-01T13:34:20.901Z,10076
2022-09-01T13:35:37.098Z,10236
2022-09-01T13:36:53.135Z,8768
2022-09-01T13:38:08.486Z,9088
2022-09-01T13:39:24.531Z,11432
2022-09-01T13:40:40.721Z,18864
2022-09-01T13:41:56.895Z,15004
2022-09-01T13:43:13.090Z,14928
2022-09-01T13:44:29.414Z,26752
2022-09-01T13:45:45.456Z,19680
2022-09-01T13:47:01.784Z,12760
2022-09-01T13:48:17.986Z,11480
2022-09-01T13:49:34.036Z,9720
2022-09-01T13:50:50.346Z,9212
2022-09-01T13:52:06.544Z,8908
2022-09-01T13:53:22.721Z,10220
2022-09-01T13:54:37.923Z,15196
2022-09-01T13:55:53.981Z,9172
2022-09-01T13:57:10.166Z,7664
2022-09-01T13:58:26.495Z,6732
2022-09-01T13:59:42.537Z,5976
2022-09-01T14:00:58.719Z,5512
2022-09-01T14:02:15.054Z,5068
2022-09-01T14:03:31.235Z,5044
2022-09-01T14:04:47.440Z,5280
2022-09-01T14:06:03.472Z,5544
2022-09-01T14:07:19.662Z,5676
2022-09-01T14:08:35.858Z,5700
2022-09-01T14:09:52.186Z,5736
2022-09-01T14:11:07.393Z,5908
2022-09-01T14:12:23.427Z,6360
2022-09-01T14:13:39.758Z,6940
2022-09-01T14:14:55.803Z,7924
2022-09-01T14:16:12.141Z,19008
2022-09-01T14:17:28.175Z,8680
2022-09-01T14:18:43.376Z,7268
2022-09-01T14:19:59.579Z,7984
2022-09-01T14:21:15.765Z,8068
2022-09-01T14:22:32.093Z,12932
2022-09-01T14:23:48.283Z,11972
2022-09-01T14:25:04.331Z,8732
2022-09-01T14:26:20.649Z,9100
2022-09-01T14:27:36.845Z,15412
2022-09-01T14:28:53.027Z,11584
2022-09-01T14:30:09.069Z,11584
2022-09-01T14:31:25.404Z,9476
2022-09-01T14:32:41.593Z,8988
2022-09-01T14:33:57.626Z,8784
2022-09-01T14:35:12.831Z,8860
2022-09-01T14:36:29.168Z,9088
2022-09-01T14:37:45.365Z,8328
2022-09-01T14:39:01.542Z,7344
2022-09-01T14:40:17.723Z,6208
2022-09-01T14:41:33.780Z,5552
2022-09-01T14:42:50.114Z,4884
2022-09-01T14:44:06.296Z,4432
2022-09-01T14:45:22.332Z,3748
2022-09-01T14:46:38.524Z,3600
2022-09-01T14:47:54.852Z,3840
2022-09-01T14:49:11.046Z,4200
2022-09-01T14:50:27.070Z,4240
2022-09-01T14:51:42.432Z,4100
2022-09-01T14:52:58.626Z,3732
2022-09-01T14:54:14.662Z,3212
2022-09-01T14:55:31.002Z,2896
2022-09-01T14:56:47.188Z,2752
2022-09-01T14:58:03.208Z,2920
2022-09-01T14:59:19.550Z,3256
2022-09-01T15:00:35.599Z,3484
2022-09-01T15:01:51.927Z,3704
2022-09-01T15:03:08.118Z,4052
2022-09-01T15:04:24.301Z,4340
2022-09-01T15:05:40.487Z,4252
2022-09-01T15:06:56.519Z,4344
2022-09-01T15:08:11.876Z,4672
2022-09-01T15:09:28.068Z,4792
2022-09-01T15:10:44.255Z,4548
2022-09-01T15:12:00.286Z,4248
2022-09-01T15:13:16.474Z,4104
2022-09-01T15:14:32.817Z,4072
2022-09-01T15:15:49.009Z,4004
2022-09-01T15:17:05.194Z,3872
2022-09-01T15:18:21.385Z,3748
2022-09-01T15:19:37.410Z,3668
2022-09-01T15:20:53.753Z,3664
2022-09-01T15:22:09.937Z,3904
2022-09-01T15:23:25.986Z,4016
2022-09-01T15:24:41.190Z,4112
2022-09-01T15:25:57.363Z,4168
2022-09-01T15:27:13.554Z,4240
2022-09-01T15:28:29.745Z,4260
2022-09-01T15:29:46.082Z,3968
2022-09-01T15:31:02.121Z,3656
2022-09-01T15:32:18.459Z,3596
2022-09-01T15:33:34.655Z,3532
2022-09-01T15:34:50.844Z,3340
2022-09-01T15:36:07.021Z,3204
2022-09-01T15:37:23.205Z,3324
2022-09-01T15:38:39.236Z,3408
2022-09-01T15:39:55.588Z,3360
2022-09-01T15:41:10.784Z,3320
2022-09-01T15:42:26.977Z,3360
2022-09-01T15:43:43.003Z,3468
2022-09-01T15:44:59.182Z,3532
2022-09-01T15:46:15.546Z,3616
2022-09-01T15:47:31.720Z,3704
2022-09-01T15:48:47.748Z,3752
2022-09-01T15:50:03.949Z,3676
2022-09-01T15:51:20.135Z,3528
2022-09-01T15:52:36.478Z,3336
2022-09-01T15:53:52.496Z,3204
2022-09-01T15:55:08.695Z,2924
2022-09-01T15:56:25.032Z,2620
2022-09-01T15:57:40.230Z,2392
2022-09-01T15:58:56.257Z,2260
2022-09-01T16:00:12.607Z,2132
2022-09-01T16:01:28.816Z,1984
2022-09-01T16:02:44.997Z,1816
2022-09-01T16:04:01.180Z,1672
2022-09-01T16:05:17.365Z,1548
2022-09-01T16:06:33.397Z,1456
2022-09-01T16:07:49.743Z,1392
2022-09-01T16:09:05.776Z,1412
2022-09-01T16:10:22.127Z,1412
2022-09-01T16:11:38.307Z,1380
2022-09-01T16:12:54.334Z,1368
2022-09-01T16:14:09.548Z,1468
2022-09-01T16:15:25.735Z,1696
2022-09-01T16:16:41.918Z,1860
2022-09-01T16:17:58.104Z,1904
2022-09-01T16:19:14.469Z,1924
2022-09-01T16:20:30.650Z,1884
2022-09-01T16:21:46.678Z,1784
2022-09-01T16:23:03.026Z,1640
2022-09-01T16:24:19.051Z,1500
2022-09-01T16:25:35.409Z,1384
2022-09-01T16:26:51.596Z,1304
2022-09-01T16:28:07.788Z,1288
2022-09-01T16:29:23.816Z,1368
2022-09-01T16:30:39.185Z,1440
2022-09-01T16:31:55.209Z,1456
2022-09-01T16:33:11.548Z,1484
2022-09-01T16:34:27.583Z,1524
2022-09-01T16:35:43.760Z,1540
2022-09-01T16:36:59.946Z,1544
2022-09-01T16:38:16.318Z,1544
2022-09-01T16:39:32.340Z,1540
2022-09-01T16:40:48.515Z,1524
2022-09-01T16:42:04.877Z,1464
2022-09-01T16:43:21.071Z,1368
2022-09-01T16:44:37.081Z,1288
2022-09-01T16:45:53.439Z,1240
2022-09-01T16:47:08.491Z,1232
2022-09-01T16:48:24.851Z,1252
2022-09-01T16:49:40.854Z,1244
2022-09-01T16:50:57.210Z,1216
2022-09-01T16:52:13.412Z,1172
2022-09-01T16:53:29.425Z,1104
2022-09-01T16:54:45.625Z,1048
2022-09-01T16:56:01.973Z,1008
2022-09-01T16:57:18.157Z,964
2022-09-01T16:58:34.356Z,940
2022-09-01T16:59:50.369Z,916
2022-09-01T17:01:06.739Z,868
2022-09-01T17:02:22.745Z,816
2022-09-01T17:03:38.130Z,788
2022-09-01T17:04:54.139Z,780
2022-09-01T17:06:10.318Z,784
2022-09-01T17:07:26.505Z,768
2022-09-01T17:08:42.875Z,756
2022-09-01T17:09:58.883Z,744
2022-09-01T17:11:15.267Z,728
2022-09-01T17:12:31.454Z,712
2022-09-01T17:13:47.637Z,692
2022-09-01T17:15:03.656Z,668
2022-09-01T17:16:20.015Z,644
2022-09-01T17:17:36.015Z,624
2022-09-01T17:18:52.205Z,596
2022-09-01T17:20:07.596Z,564
2022-09-01T17:21:23.600Z,528
2022-09-01T17:22:39.800Z,504
2022-09-01T17:23:56.157Z,480